createdAt,value
2023-03-08T00:03:20.797Z,23.58
2023-03-08T00:08:22.188Z,23.59
2023-03-08T00:13:23.875Z,23.82
2023-03-08T00:18:25.386Z,23.51
2023-03-08T00:23:26.781Z,23.56
2023-03-08T00:28:28.264Z,23.48
2023-03-08T00:33:30.375Z,23.69
2023-03-08T00:38:33.450Z,23.58
2023-03-08T00:43:34.856Z,23.59
2023-03-08T00:48:36.251Z,23.23
2023-03-08T00:53:37.626Z,23.54
2023-03-08T00:58:39.702Z,23.44
2023-03-08T01:03:41.143Z,23.38
2023-03-08T01:08:42.653Z,23.29
2023-03-08T01:13:44.113Z,23.16
2023-03-08T01:18:45.573Z,23.07
2023-03-08T01:23:46.965Z,23.16
2023-03-08T01:28:48.405Z,23.24
2023-03-08T01:33:49.882Z,23.27
2023-03-08T01:38:51.294Z,23.50
2023-03-08T01:43:52.800Z,23.23
2023-03-08T01:49:04.458Z,23.18
2023-03-08T01:54:12.372Z,23.26
2023-03-08T01:59:13.765Z,23.19
2023-03-08T02:04:15.175Z,23.08
2023-03-08T02:09:16.559Z,23.00
2023-03-08T02:14:17.964Z,23.00
2023-03-08T02:19:25.149Z,22.95
2023-03-08T02:24:26.549Z,22.94
2023-03-08T02:29:27.920Z,22.81
2023-03-08T02:34:29.313Z,22.84
2023-03-08T02:39:30.745Z,22.96
2023-03-08T02:44:32.131Z,22.93
2023-03-08T02:49:33.506Z,22.82
2023-03-08T02:54:34.876Z,22.76
2023-03-08T02:59:36.251Z,22.92
2023-03-08T03:04:37.753Z,22.82
2023-03-08T03:09:39.210Z,22.99
2023-03-08T03:14:40.623Z,22.86
2023-03-08T03:19:42.010Z,22.88
2023-03-08T03:24:43.380Z,22.95
2023-03-08T03:29:44.806Z,22.87
2023-03-08T03:34:46.584Z,22.83
2023-03-08T03:39:47.956Z,23.10
2023-03-08T03:44:49.358Z,23.01
2023-03-08T03:49:50.751Z,23.26
2023-03-08T03:54:52.118Z,23.16
2023-03-08T03:59:53.507Z,23.19
2023-03-08T04:04:54.889Z,23.14
2023-03-08T04:09:56.353Z,23.28
2023-03-08T04:14:57.767Z,23.03
2023-03-08T04:19:59.272Z,23.14
2023-03-08T04:25:00.674Z,23.27
2023-03-08T04:30:02.123Z,23.45
2023-03-08T04:35:03.590Z,23.33
2023-03-08T04:40:09.132Z,23.26
2023-03-08T04:45:10.883Z,23.19
2023-03-08T04:50:12.281Z,23.28
2023-03-08T04:55:13.643Z,23.29
2023-03-08T05:00:15.711Z,23.28
2023-03-08T05:05:17.117Z,23.44
2023-03-08T05:10:18.524Z,23.45
2023-03-08T05:15:19.962Z,23.52
2023-03-08T05:20:21.359Z,23.35
2023-03-08T05:25:22.737Z,23.43
2023-03-08T05:30:24.155Z,23.50
2023-03-08T05:35:25.556Z,23.45
2023-03-08T05:40:26.931Z,23.30
2023-03-08T05:45:28.453Z,23.54
2023-03-08T05:50:29.896Z,23.45
2023-03-08T05:55:31.268Z,23.61
2023-03-08T06:00:32.658Z,23.41
2023-03-08T06:05:34.067Z,23.31
2023-03-08T06:10:35.439Z,23.48
2023-03-08T06:15:36.846Z,23.58
2023-03-08T06:20:38.250Z,23.56
2023-03-08T06:25:39.632Z,23.42
2023-03-08T06:30:41.056Z,23.49
2023-03-08T06:35:42.660Z,23.61
2023-03-08T06:40:44.076Z,23.54
2023-03-08T06:45:45.676Z,23.46
2023-03-08T06:50:47.114Z,23.46
2023-03-08T06:55:48.504Z,23.48
2023-03-08T07:00:49.953Z,23.53
2023-03-08T07:05:51.361Z,23.61
2023-03-08T07:10:53.094Z,23.74
2023-03-08T07:15:54.645Z,23.52
2023-03-08T07:20:56.476Z,23.88
2023-03-08T07:25:57.866Z,23.74
2023-03-08T07:30:59.279Z,23.63
2023-03-08T07:36:02.155Z,24.00
2023-03-08T07:41:03.616Z,23.87
2023-03-08T07:46:05.112Z,23.89
2023-03-08T07:51:08.707Z,23.61
2023-03-08T07:56:10.276Z,23.67
2023-03-08T08:01:12.070Z,23.89
2023-03-08T08:06:13.491Z,23.95
2023-03-08T08:11:16.048Z,24.09
2023-03-08T08:16:17.512Z,23.99
2023-03-08T08:21:18.928Z,23.91
2023-03-08T08:26:20.989Z,24.00
2023-03-08T08:31:23.824Z,24.07
2023-03-08T08:36:25.470Z,24.04
2023-03-08T08:41:27.992Z,24.04
2023-03-08T08:46:30.837Z,23.93
2023-03-08T08:51:32.321Z,23.92
2023-03-08T08:56:34.405Z,23.91
2023-03-08T09:01:36.864Z,23.97
2023-03-08T09:06:38.368Z,23.75
2023-03-08T09:11:52.165Z,24.01
2023-03-08T09:16:55.959Z,24.03
2023-03-08T09:21:57.403Z,24.09
2023-03-08T09:26:58.797Z,24.07
2023-03-08T09:32:00.619Z,24.21
2023-03-08T09:37:02.841Z,24.38
2023-03-08T09:42:04.345Z,24.37
2023-03-08T09:47:09.255Z,24.21
2023-03-08T09:52:11.819Z,24.49
2023-03-08T09:57:16.662Z,24.46
2023-03-08T10:02:26.213Z,24.56
2023-03-08T10:07:41.483Z,24.78
2023-03-08T10:13:01.323Z,24.34
2023-03-08T10:18:12.209Z,24.42
2023-03-08T10:23:21.186Z,24.70
2023-03-08T10:28:24.178Z,24.71
2023-03-08T10:33:33.462Z,24.80
2023-03-08T10:38:36.046Z,24.98
2023-03-08T10:43:40.095Z,24.89
2023-03-08T10:48:41.638Z,25.52
2023-03-08T10:53:55.535Z,25.35
2023-03-08T10:58:57.224Z,25.36
2023-03-08T11:04:06.585Z,25.63
2023-03-08T11:09:22.825Z,25.64
2023-03-08T11:14:24.711Z,25.74
2023-03-08T11:19:53.911Z,25.40
2023-03-08T11:25:14.080Z,25.56
2023-03-08T11:30:27.929Z,26.05
2023-03-08T11:35:35.441Z,26.36
2023-03-08T11:40:50.896Z,26.11
2023-03-08T11:46:12.423Z,26.34
2023-03-08T11:51:30.980Z,26.72
2023-03-08T11:56:47.646Z,26.60
2023-03-08T12:02:11.302Z,26.81
2023-03-08T12:07:26.328Z,26.51
2023-03-08T12:12:32.336Z,26.48
2023-03-08T12:17:40.657Z,26.40
2023-03-08T12:22:46.157Z,26.60
2023-03-08T12:27:50.484Z,26.42
2023-03-08T12:32:54.622Z,26.12
2023-03-08T12:38:05.009Z,26.21
2023-03-08T12:43:11.742Z,26.31
2023-03-08T12:48:19.032Z,26.35
2023-03-08T12:53:40.610Z,26.56
2023-03-08T12:58:57.876Z,26.61
2023-03-08T13:03:59.782Z,26.57
2023-03-08T13:09:14.250Z,27.05
2023-03-08T13:14:44.773Z,27.26
2023-03-08T13:19:46.184Z,27.15
2023-03-08T13:25:00.007Z,27.45
2023-03-08T13:30:17.707Z,27.50
2023-03-08T13:35:19.933Z,27.46
2023-03-08T13:40:21.830Z,27.42
2023-03-08T13:45:23.268Z,27.32
2023-03-08T13:50:30.539Z,27.34
2023-03-08T13:55:38.588Z,27.25
2023-03-08T14:00:40.264Z,27.10
2023-03-08T14:05:43.524Z,26.81
2023-03-08T14:10:46.900Z,26.75
2023-03-08T14:15:56.479Z,26.82
2023-03-08T14:21:14.869Z,27.21
2023-03-08T14:26:35.400Z,27.21
2023-03-08T14:31:38.856Z,27.08
2023-03-08T14:36:46.595Z,26.64
2023-03-08T14:41:47.977Z,26.60
2023-03-08T14:46:50.676Z,26.64
2023-03-08T14:51:52.790Z,26.75
2023-03-08T14:56:54.180Z,26.63
2023-03-08T15:01:55.671Z,26.40
2023-03-08T15:06:57.093Z,26.56
2023-03-08T15:12:01.732Z,26.48
2023-03-08T15:17:03.161Z,26.82
2023-03-08T15:22:05.105Z,26.38
2023-03-08T15:27:06.540Z,26.29
2023-03-08T15:32:08.163Z,26.42
2023-03-08T15:37:13.576Z,26.60
2023-03-08T15:42:14.962Z,26.80
2023-03-08T15:47:16.637Z,26.59
2023-03-08T15:52:18.092Z,26.45
2023-03-08T15:57:19.494Z,26.50
2023-03-08T16:02:20.997Z,26.48
2023-03-08T16:07:22.437Z,26.57
2023-03-08T16:12:23.998Z,26.54
2023-03-08T16:17:25.852Z,26.49
2023-03-08T16:22:28.936Z,26.92
2023-03-08T16:27:31.129Z,26.90
2023-03-08T16:32:32.638Z,26.98
2023-03-08T16:37:34.257Z,27.07
2023-03-08T16:42:35.682Z,27.20
2023-03-08T16:47:37.081Z,27.17
2023-03-08T16:52:38.463Z,27.21
2023-03-08T16:57:40.143Z,27.09
2023-03-08T17:02:41.546Z,27.13
2023-03-08T17:07:42.944Z,27.07
2023-03-08T17:12:44.324Z,27.25
2023-03-08T17:17:45.736Z,27.19
2023-03-08T17:22:47.116Z,27.08
2023-03-08T17:27:48.528Z,27.15
2023-03-08T17:32:49.915Z,27.17
2023-03-08T17:37:51.488Z,27.42
2023-03-08T17:42:52.911Z,27.20
2023-03-08T17:48:00.913Z,27.04
2023-03-08T17:53:02.314Z,27.03
2023-03-08T17:58:03.923Z,27.32
2023-03-08T18:03:05.322Z,27.34
2023-03-08T18:08:06.691Z,27.13
2023-03-08T18:13:08.055Z,26.82
2023-03-08T18:18:09.454Z,26.78
2023-03-08T18:23:10.870Z,27.17
2023-03-08T18:28:12.284Z,26.78
2023-03-08T18:33:13.768Z,26.78
2023-03-08T18:38:15.183Z,26.79
2023-03-08T18:43:16.640Z,26.87
2023-03-08T18:48:18.097Z,27.02
2023-03-08T18:53:19.471Z,26.59
2023-03-08T18:58:20.962Z,26.62
2023-03-08T19:03:22.450Z,26.85
2023-03-08T19:08:23.869Z,26.90
2023-03-08T19:13:25.276Z,26.90
2023-03-08T19:18:26.654Z,26.56
2023-03-08T19:23:28.027Z,26.78
2023-03-08T19:28:29.472Z,26.94
2023-03-08T19:33:31.848Z,27.06
2023-03-08T19:38:33.371Z,26.89
2023-03-08T19:43:34.763Z,26.79
2023-03-08T19:48:36.480Z,26.67
2023-03-08T19:53:37.852Z,27.09
2023-03-08T19:58:39.221Z,26.96
2023-03-08T20:03:40.635Z,26.84
2023-03-08T20:08:42.064Z,26.85
2023-03-08T20:13:43.468Z,26.93
2023-03-08T20:18:45.111Z,26.89
2023-03-08T20:23:46.867Z,26.88
2023-03-08T20:28:49.505Z,26.87
2023-03-08T20:33:50.997Z,26.82
2023-03-08T20:38:52.420Z,27.05
2023-03-08T20:43:57.239Z,26.99
2023-03-08T20:48:58.718Z,26.92
2023-03-08T20:54:00.123Z,26.68
2023-03-08T20:59:02.265Z,26.85
2023-03-08T21:04:04.911Z,26.95
2023-03-08T21:09:06.307Z,26.99
2023-03-08T21:14:07.713Z,26.99
2023-03-08T21:19:09.179Z,27.07
2023-03-08T21:24:14.908Z,27.06
2023-03-08T21:29:16.714Z,27.18
2023-03-08T21:34:18.545Z,27.17
2023-03-08T21:39:19.949Z,27.01
2023-03-08T21:44:21.322Z,27.23
2023-03-08T21:49:25.158Z,27.27
2023-03-08T21:54:26.986Z,27.14
2023-03-08T21:59:29.134Z,27.28
2023-03-08T22:04:30.608Z,27.17
2023-03-08T22:09:31.987Z,27.39
2023-03-08T22:14:33.456Z,27.44
2023-03-08T22:19:34.831Z,27.42
2023-03-08T22:24:36.195Z,27.15
2023-03-08T22:29:37.600Z,27.25
2023-03-08T22:34:39.034Z,27.19
2023-03-08T22:39:40.429Z,27.27
2023-03-08T22:44:41.820Z,27.29
2023-03-08T22:49:43.267Z,27.11
2023-03-08T22:54:44.824Z,27.26
2023-03-08T22:59:46.776Z,27.17
2023-03-08T23:04:48.776Z,27.08
2023-03-08T23:09:50.156Z,27.18
2023-03-08T23:14:51.526Z,27.27
2023-03-08T23:19:52.910Z,27.25
2023-03-08T23:24:54.284Z,27.25
2023-03-08T23:29:55.682Z,27.14
2023-03-08T23:34:57.097Z,27.17
2023-03-08T23:39:58.515Z,27.11
2023-03-08T23:44:59.896Z,27.19
2023-03-08T23:50:01.305Z,26.94
2023-03-08T23:55:02.753Z,27.17
